F/V Les Antilles — FGPP — position and weather

sailwx.info

Track history (hours):
 
Tides and Currents Weather Stations Pressure Air Temp Water Temp Dewpoint Dewpoint Depression Visibility Wind Speed Wind Dir Waves Ship Positions

F/V Les Antilles

Last reported at 2017-Sep-22 00:25 UTC. Time now 2017-Sep-22 11:46 UTC.
Position N 47°24' W 004°05'.

Length 15 m.

MMSI: 228905000.

Date/timePositionNaut miles runAvg speedWind from/ knotsBaromVisibWave heightAir tempDewpointWater temp
2017-Sep-22 00:25N 47°24' W 004°05'4 2.8
2017-Sep-21 22:51N 47°23' W 004°11'2 3.3
2017-Sep-21 22:15N 47°21' W 004°10'1 3.3
2017-Sep-21 21:57N 47°20' W 004°10'1 1.3
2017-Sep-21 21:29N 47°20' W 004°09'5 0.9
2017-Sep-21 16:06N 47°24' W 004°07'0 3.7
2017-Sep-21 16:00N 47°24' W 004°07'2 0.6
2017-Sep-21 13:06N 47°24' W 004°05'4 2.6
2017-Sep-21 11:32N 47°23' W 004°11'0 3.3
2017-Sep-21 11:25N 47°22' W 004°11'3 0.5
2017-Sep-21 05:24N 47°25' W 004°08'3 4.8
2017-Sep-21 04:47N 47°28' W 004°09'2 6.5
2017-Sep-21 04:30N 47°30' W 004°10'14 6.9
2017-Sep-21 02:24N 47°43' W 004°16'3 6.9
2017-Sep-21 01:56N 47°46' W 004°18'1 2.4
2017-Sep-21 01:29N 47°48' W 004°17'0 0.0
2017-Sep-21 00:46N 47°48' W 004°17'5 6.5
2017-Sep-20 23:58N 47°42' W 004°17'4 8.8
2017-Sep-20 23:29N 47°38' W 004°16'5 8.6
2017-Sep-20 22:52N 47°33' W 004°14'3 7.8
2017-Sep-20 22:30N 47°30' W 004°12'2 2.5
2017-Sep-20 21:54N 47°29' W 004°12'4 3.2
2017-Sep-20 20:35N 47°25' W 004°08'1 3.2
2017-Sep-20 20:14N 47°24' W 004°08'1 3.1
2017-Sep-20 19:52N 47°23' W 004°07'1 2.8
2017-Sep-20 19:22N 47°22' W 004°08'1 2.9
2017-Sep-20 18:58N 47°22' W 004°10'3 3.2
2017-Sep-20 18:10N 47°24' W 004°08'1 2.1
2017-Sep-20 17:39N 47°24' W 004°07'1 2.7
2017-Sep-20 17:13N 47°24' W 004°05'1 2.9
2017-Sep-20 16:50N 47°23' W 004°06'3 2.8
2017-Sep-20 15:45N 47°21' W 004°10'1 3.2
2017-Sep-20 15:27N 47°22' W 004°10'2 3.1
2017-Sep-20 14:44N 47°24' W 004°09'1 1.6
2017-Sep-20 14:00N 47°24' W 004°07'2 3.3
2017-Sep-20 13:26N 47°22' W 004°07'2 3.3
2017-Sep-20 12:58N 47°21' W 004°08'3 3.4
2017-Sep-20 12:09N 47°19' W 004°10'1 3.7
2017-Sep-20 11:58N 47°18' W 004°11'1 2.3
2017-Sep-20 11:29N 47°19' W 004°11'2 2.9
2017-Sep-20 10:51N 47°21' W 004°11'2 3.3
2017-Sep-20 10:21N 47°23' W 004°10'2 2.3
2017-Sep-20 09:17N 47°25' W 004°08'1 3.2
2017-Sep-20 08:58N 47°24' W 004°07'2 3.2
2017-Sep-20 08:28N 47°23' W 004°07'2 3.1
2017-Sep-20 07:55N 47°21' W 004°08'2 0.6
2017-Sep-20 04:46N 47°20' W 004°10'1 3.4
2017-Sep-20 04:30N 47°21' W 004°11'3 3.1
2017-Sep-20 03:31N 47°24' W 004°09'2 3.0
2017-Sep-20 03:00N 47°24' W 004°07'2 3.3
2017-Sep-20 02:29N 47°23' W 004°07'2 3.4
2017-Sep-20 02:00N 47°21' W 004°07'2 3.4
2017-Sep-20 01:23N 47°20' W 004°10'2 2.7
2017-Sep-20 00:45N 47°19' W 004°12'1 3.4
2017-Sep-20 00:25N 47°19' W 004°14'5 2.0
2017-Sep-19 21:48N 47°22' W 004°07'1 3.1
2017-Sep-19 21:29N 47°23' W 004°07'2 2.5
2017-Sep-19 20:51N 47°24' W 004°09'1 3.0
2017-Sep-19 20:31N 47°25' W 004°10'1 2.2
2017-Sep-19 20:01N 47°25' W 004°11'4 3.1
2017-Sep-19 18:43N 47°29' W 004°14'18 4.8
2017-Sep-19 14:53N 47°47' W 004°18'0 0.0
2017-Sep-19 13:48N 47°47' W 004°18'17 1.7
2017-Sep-19 03:24N 47°37' W 003°57'3 7.5
2017-Sep-19 02:58N 47°39' W 003°54'5 7.4
2017-Sep-19 02:18N 47°44' W 003°55'3 7.6
2017-Sep-19 01:57N 47°47' W 003°56'5 4.0
2017-Sep-19 00:43N 47°52' W 003°55'2 7.9
2017-Sep-19 00:29N 47°50' W 003°56'5 8.2
2017-Sep-18 23:48N 47°45' W 003°55'3 8.2
2017-Sep-18 23:30N 47°42' W 003°55'4 8.3
2017-Sep-18 23:00N 47°38' W 003°56'6 8.0
2017-Sep-18 22:16N 47°32' W 003°58'2 8.2
2017-Sep-18 22:01N 47°30' W 003°59'2 4.1
2017-Sep-18 21:27N 47°28' W 003°60'3 0.6
2017-Sep-18 16:34N 47°29' W 004°04'0 3.7
2017-Sep-18 16:28N 47°29' W 004°04'5 3.0
2017-Sep-18 14:48N 47°28' W 004°12'1 3.1
2017-Sep-18 14:29N 47°27' W 004°11'2 3.2
2017-Sep-18 13:56N 47°28' W 004°08'3 1.1
2017-Sep-18 11:09N 47°29' W 004°05'0 3.4
2017-Sep-18 11:00N 47°29' W 004°04'21 2.7
2017-Sep-18 02:58N 47°50' W 004°09'  
2017-Sep-15 21:38N 47°49' W 004°00'1 0.8
2017-Sep-15 19:48N 47°48' W 003°58'22 0.9
2017-Sep-14 19:33N 47°27' W 004°05'0 3.0
2017-Sep-14 19:27N 47°28' W 004°05'1 1.8
2017-Sep-14 18:59N 47°28' W 004°04'1 2.9
2017-Sep-14 18:29N 47°30' W 004°04'2 2.2
2017-Sep-14 17:45N 47°31' W 004°05'1 3.3
2017-Sep-14 17:30N 47°31' W 004°04'1 2.0
2017-Sep-14 17:00N 47°30' W 004°05'3 1.4
2017-Sep-14 14:57N 47°28' W 004°06'2 3.5
2017-Sep-14 14:28N 47°28' W 004°04'2 2.7
2017-Sep-14 13:41N 47°30' W 004°02'11 1.1
2017-Sep-14 03:58N 47°39' W 003°55'10 7.7
2017-Sep-14 02:36N 47°49' W 003°56'3 1.5
2017-Sep-14 00:53N 47°52' W 003°55'8 6.0
2017-Sep-13 23:38N 47°44' W 003°54'2 5.7
2017-Sep-13 23:17N 47°43' W 003°53'2 5.5
2017-Sep-13 22:59N 47°41' W 003°52'3 5.5
2017-Sep-13 22:27N 47°38' W 003°52'3 5.5
2017-Sep-13 21:58N 47°36' W 003°50'3 5.7
2017-Sep-13 21:30N 47°33' W 003°49'2 4.7
2017-Sep-13 21:00N 47°31' W 003°48'1 2.6
2017-Sep-13 20:29N 47°30' W 003°49'2 3.4
2017-Sep-13 20:00N 47°28' W 003°51'2 3.2
2017-Sep-13 19:22N 47°28' W 003°54'  
Track history (hours):
 
Tides and Currents Weather Stations Pressure Air Temp Water Temp Dewpoint Dewpoint Depression Visibility Wind Speed Wind Dir Waves Ship Positions

F/V Les Antilles

Last reported at 2017-Sep-22 00:25 UTC. Time now 2017-Sep-22 11:46 UTC.
Position N 47°24' W 004°05'.

Length 15 m.

MMSI: 228905000.

Date/timePositionNaut miles runAvg speedWind from/ knotsBaromVisibWave heightAir tempDewpointWater temp
2017-Sep-22 00:25N 47°24' W 004°05'4 2.8
2017-Sep-21 22:51N 47°23' W 004°11'2 3.3
2017-Sep-21 22:15N 47°21' W 004°10'1 3.3
2017-Sep-21 21:57N 47°20' W 004°10'1 1.3
2017-Sep-21 21:29N 47°20' W 004°09'5 0.9
2017-Sep-21 16:06N 47°24' W 004°07'0 3.7
2017-Sep-21 16:00N 47°24' W 004°07'2 0.6
2017-Sep-21 13:06N 47°24' W 004°05'4 2.6
2017-Sep-21 11:32N 47°23' W 004°11'0 3.3
2017-Sep-21 11:25N 47°22' W 004°11'3 0.5
2017-Sep-21 05:24N 47°25' W 004°08'3 4.8
2017-Sep-21 04:47N 47°28' W 004°09'2 6.5
2017-Sep-21 04:30N 47°30' W 004°10'14 6.9
2017-Sep-21 02:24N 47°43' W 004°16'3 6.9
2017-Sep-21 01:56N 47°46' W 004°18'1 2.4
2017-Sep-21 01:29N 47°48' W 004°17'0 0.0
2017-Sep-21 00:46N 47°48' W 004°17'5 6.5
2017-Sep-20 23:58N 47°42' W 004°17'4 8.8
2017-Sep-20 23:29N 47°38' W 004°16'5 8.6
2017-Sep-20 22:52N 47°33' W 004°14'3 7.8
2017-Sep-20 22:30N 47°30' W 004°12'2 2.5
2017-Sep-20 21:54N 47°29' W 004°12'4 3.2
2017-Sep-20 20:35N 47°25' W 004°08'1 3.2
2017-Sep-20 20:14N 47°24' W 004°08'1 3.1
2017-Sep-20 19:52N 47°23' W 004°07'1 2.8
2017-Sep-20 19:22N 47°22' W 004°08'1 2.9
2017-Sep-20 18:58N 47°22' W 004°10'3 3.2
2017-Sep-20 18:10N 47°24' W 004°08'1 2.1
2017-Sep-20 17:39N 47°24' W 004°07'1 2.7
2017-Sep-20 17:13N 47°24' W 004°05'1 2.9
2017-Sep-20 16:50N 47°23' W 004°06'3 2.8
2017-Sep-20 15:45N 47°21' W 004°10'1 3.2
2017-Sep-20 15:27N 47°22' W 004°10'2 3.1
2017-Sep-20 14:44N 47°24' W 004°09'1 1.6
2017-Sep-20 14:00N 47°24' W 004°07'2 3.3
2017-Sep-20 13:26N 47°22' W 004°07'2 3.3
2017-Sep-20 12:58N 47°21' W 004°08'3 3.4
2017-Sep-20 12:09N 47°19' W 004°10'1 3.7
2017-Sep-20 11:58N 47°18' W 004°11'1 2.3
2017-Sep-20 11:29N 47°19' W 004°11'2 2.9
2017-Sep-20 10:51N 47°21' W 004°11'2 3.3
2017-Sep-20 10:21N 47°23' W 004°10'2 2.3
2017-Sep-20 09:17N 47°25' W 004°08'1 3.2
2017-Sep-20 08:58N 47°24' W 004°07'2 3.2
2017-Sep-20 08:28N 47°23' W 004°07'2 3.1
2017-Sep-20 07:55N 47°21' W 004°08'2 0.6
2017-Sep-20 04:46N 47°20' W 004°10'1 3.4
2017-Sep-20 04:30N 47°21' W 004°11'3 3.1
2017-Sep-20 03:31N 47°24' W 004°09'2 3.0
2017-Sep-20 03:00N 47°24' W 004°07'2 3.3
2017-Sep-20 02:29N 47°23' W 004°07'2 3.4
2017-Sep-20 02:00N 47°21' W 004°07'2 3.4
2017-Sep-20 01:23N 47°20' W 004°10'2 2.7
2017-Sep-20 00:45N 47°19' W 004°12'1 3.4
2017-Sep-20 00:25N 47°19' W 004°14'5 2.0
2017-Sep-19 21:48N 47°22' W 004°07'1 3.1
2017-Sep-19 21:29N 47°23' W 004°07'2 2.5
2017-Sep-19 20:51N 47°24' W 004°09'1 3.0
2017-Sep-19 20:31N 47°25' W 004°10'1 2.2
2017-Sep-19 20:01N 47°25' W 004°11'4 3.1
2017-Sep-19 18:43N 47°29' W 004°14'18 4.8
2017-Sep-19 14:53N 47°47' W 004°18'0 0.0
2017-Sep-19 13:48N 47°47' W 004°18'17 1.7
2017-Sep-19 03:24N 47°37' W 003°57'3 7.5
2017-Sep-19 02:58N 47°39' W 003°54'5 7.4
2017-Sep-19 02:18N 47°44' W 003°55'3 7.6
2017-Sep-19 01:57N 47°47' W 003°56'5 4.0
2017-Sep-19 00:43N 47°52' W 003°55'2 7.9
2017-Sep-19 00:29N 47°50' W 003°56'5 8.2
2017-Sep-18 23:48N 47°45' W 003°55'3 8.2
2017-Sep-18 23:30N 47°42' W 003°55'4 8.3
2017-Sep-18 23:00N 47°38' W 003°56'6 8.0
2017-Sep-18 22:16N 47°32' W 003°58'2 8.2
2017-Sep-18 22:01N 47°30' W 003°59'2 4.1
2017-Sep-18 21:27N 47°28' W 003°60'3 0.6
2017-Sep-18 16:34N 47°29' W 004°04'0 3.7
2017-Sep-18 16:28N 47°29' W 004°04'5 3.0
2017-Sep-18 14:48N 47°28' W 004°12'1 3.1
2017-Sep-18 14:29N 47°27' W 004°11'2 3.2
2017-Sep-18 13:56N 47°28' W 004°08'3 1.1
2017-Sep-18 11:09N 47°29' W 004°05'0 3.4
2017-Sep-18 11:00N 47°29' W 004°04'21 2.7
2017-Sep-18 02:58N 47°50' W 004°09'  
2017-Sep-15 21:38N 47°49' W 004°00'1 0.8
2017-Sep-15 19:48N 47°48' W 003°58'22 0.9
2017-Sep-14 19:33N 47°27' W 004°05'0 3.0
2017-Sep-14 19:27N 47°28' W 004°05'1 1.8
2017-Sep-14 18:59N 47°28' W 004°04'1 2.9
2017-Sep-14 18:29N 47°30' W 004°04'2 2.2
2017-Sep-14 17:45N 47°31' W 004°05'1 3.3
2017-Sep-14 17:30N 47°31' W 004°04'1 2.0
2017-Sep-14 17:00N 47°30' W 004°05'3 1.4
2017-Sep-14 14:57N 47°28' W 004°06'2 3.5
2017-Sep-14 14:28N 47°28' W 004°04'2 2.7
2017-Sep-14 13:41N 47°30' W 004°02'11 1.1
2017-Sep-14 03:58N 47°39' W 003°55'10 7.7
2017-Sep-14 02:36N 47°49' W 003°56'3 1.5
2017-Sep-14 00:53N 47°52' W 003°55'8 6.0
2017-Sep-13 23:38N 47°44' W 003°54'2 5.7
2017-Sep-13 23:17N 47°43' W 003°53'2 5.5
2017-Sep-13 22:59N 47°41' W 003°52'3 5.5
2017-Sep-13 22:27N 47°38' W 003°52'3 5.5
2017-Sep-13 21:58N 47°36' W 003°50'3 5.7
2017-Sep-13 21:30N 47°33' W 003°49'2 4.7
2017-Sep-13 21:00N 47°31' W 003°48'1 2.6
2017-Sep-13 20:29N 47°30' W 003°49'2 3.4
2017-Sep-13 20:00N 47°28' W 003°51'2 3.2
2017-Sep-13 19:22N 47°28' W 003°54'  

Dump ship's entire track history